createdAt,value
2022-11-01T00:00:18.382Z,25.30
2022-11-01T00:02:20.598Z,23.50
2022-11-01T00:04:22.753Z,23.42
2022-11-01T00:06:24.926Z,25.65
2022-11-01T00:08:27.190Z,21.15
2022-11-01T00:10:29.700Z,23.58
2022-11-01T00:12:32.177Z,22.67
2022-11-01T00:14:34.305Z,22.48
2022-11-01T00:16:36.571Z,22.05
2022-11-01T00:18:38.638Z,22.70
2022-11-01T00:20:40.617Z,21.92
2022-11-01T00:22:42.582Z,21.77
2022-11-01T00:24:44.581Z,22.17
2022-11-01T00:26:46.633Z,21.67
2022-11-01T00:28:49.685Z,21.83
2022-11-01T00:30:56.359Z,46.13
2022-11-01T00:32:58.526Z,45.92
2022-11-01T00:35:00.467Z,39.10
2022-11-01T00:37:02.565Z,49.40
2022-11-01T00:39:05.548Z,45.83
2022-11-01T00:41:07.917Z,31.67
2022-11-01T00:43:11.592Z,30.42
2022-11-01T00:45:13.490Z,28.35
2022-11-01T00:47:15.552Z,26.15
2022-11-01T00:49:17.567Z,25.00
2022-11-01T00:51:20.188Z,25.33
2022-11-01T00:53:22.655Z,27.95
2022-11-01T00:55:24.523Z,24.88
2022-11-01T00:57:26.671Z,25.00
2022-11-01T00:59:28.759Z,31.50
2022-11-01T01:01:32.596Z,68.68
2022-11-01T01:03:34.955Z,71.85
2022-11-01T01:05:37.570Z,103.00
2022-11-01T01:07:39.801Z,73.93
2022-11-01T01:09:42.034Z,52.03
2022-11-01T01:11:44.021Z,34.28
2022-11-01T01:13:45.933Z,26.70
2022-11-01T01:15:48.175Z,21.83
2022-11-01T01:17:50.789Z,19.50
2022-11-01T01:19:52.871Z,20.77
2022-11-01T01:21:54.761Z,17.25
2022-11-01T01:23:56.777Z,17.63
2022-11-01T01:25:58.760Z,17.95
2022-11-01T01:28:01.235Z,17.85
2022-11-01T01:30:10.376Z,17.70
2022-11-01T01:32:18.799Z,20.38
2022-11-01T01:34:24.073Z,18.92
2022-11-01T01:36:26.128Z,19.17
2022-11-01T01:38:28.218Z,18.75
2022-11-01T01:40:30.622Z,18.42
2022-11-01T01:42:44.084Z,18.00
2022-11-01T01:44:52.124Z,17.25
2022-11-01T01:46:54.275Z,17.15
2022-11-01T01:48:59.820Z,16.83
2022-11-01T01:51:05.978Z,17.52
2022-11-01T01:53:34.339Z,15.52
2022-11-01T01:55:49.115Z,17.67
2022-11-01T01:57:53.102Z,14.48
2022-11-01T01:59:55.079Z,15.40
2022-11-01T02:01:59.302Z,16.60
2022-11-01T02:04:03.880Z,16.27
2022-11-01T02:06:21.227Z,15.68
2022-11-01T02:08:29.567Z,16.35
2022-11-01T02:10:35.990Z,15.98
2022-11-01T02:12:37.921Z,16.90
2022-11-01T02:14:42.494Z,16.65
2022-11-01T02:17:02.535Z,16.35
2022-11-01T02:19:38.324Z,16.23
2022-11-01T02:21:46.164Z,15.45
2022-11-01T02:24:31.491Z,15.70
2022-11-01T02:27:03.285Z,16.20
2022-11-01T02:29:14.755Z,15.38
2022-11-01T02:31:42.133Z,14.30
2022-11-01T02:34:13.285Z,12.57
2022-11-01T02:36:31.660Z,14.00
2022-11-01T02:38:44.387Z,12.75
2022-11-01T02:41:08.576Z,13.88
2022-11-01T02:43:21.620Z,14.02
2022-11-01T02:45:31.771Z,15.25
2022-11-01T02:47:34.677Z,14.93
2022-11-01T02:49:48.349Z,14.77
2022-11-01T02:51:51.572Z,15.23
2022-11-01T02:53:53.573Z,16.33
2022-11-01T02:55:55.533Z,14.80
2022-11-01T02:58:20.277Z,17.90
2022-11-01T03:00:29.097Z,14.93
2022-11-01T03:02:44.788Z,14.27
2022-11-01T03:04:48.249Z,14.93
2022-11-01T03:06:56.074Z,17.13
2022-11-01T03:09:02.636Z,14.73
2022-11-01T03:11:15.953Z,14.40
2022-11-01T03:13:29.363Z,17.80
2022-11-01T03:15:42.905Z,15.40
2022-11-01T03:17:53.363Z,16.13
2022-11-01T03:20:07.046Z,14.15
2022-11-01T03:22:21.532Z,14.48
2022-11-01T03:24:36.311Z,16.55
2022-11-01T03:26:39.879Z,15.65
2022-11-01T03:28:46.495Z,13.95
2022-11-01T03:30:57.348Z,13.43
2022-11-01T03:32:59.561Z,16.38
2022-11-01T03:35:04.591Z,14.32
2022-11-01T03:37:11.783Z,13.85
2022-11-01T03:39:25.249Z,14.45
2022-11-01T03:41:30.306Z,14.38
2022-11-01T03:43:35.648Z,15.27
2022-11-01T03:45:40.523Z,13.90
2022-11-01T03:47:43.319Z,15.15
2022-11-01T03:49:45.585Z,13.05
2022-11-01T03:52:37.476Z,12.90
2022-11-01T03:54:39.588Z,12.70
2022-11-01T03:56:42.071Z,14.68
2022-11-01T03:58:45.279Z,14.30
2022-11-01T04:00:47.349Z,13.32
2022-11-01T04:02:51.072Z,13.95
2022-11-01T04:04:52.961Z,12.15
2022-11-01T04:06:54.942Z,11.75
2022-11-01T04:08:57.419Z,12.30
2022-11-01T04:10:59.887Z,11.55
2022-11-01T04:13:02.414Z,11.85
2022-11-01T04:15:23.925Z,12.65
2022-11-01T04:17:44.472Z,12.00
2022-11-01T04:20:04.976Z,13.38
2022-11-01T04:22:07.131Z,11.68
2022-11-01T04:24:09.651Z,11.90
2022-11-01T04:26:18.108Z,12.32
2022-11-01T04:28:20.535Z,12.88
2022-11-01T04:30:27.303Z,12.38
2022-11-01T04:32:31.877Z,13.55
2022-11-01T04:34:43.504Z,11.75
2022-11-01T04:36:45.450Z,12.63
2022-11-01T04:38:52.661Z,13.00
2022-11-01T04:40:56.831Z,12.40
2022-11-01T04:42:59.558Z,11.80
2022-11-01T04:45:02.688Z,14.07
2022-11-01T04:47:04.851Z,12.85
2022-11-01T04:49:06.847Z,12.07
2022-11-01T04:51:35.121Z,11.50
2022-11-01T04:53:37.777Z,11.68
2022-11-01T04:55:40.103Z,13.73
2022-11-01T04:57:43.289Z,12.85
2022-11-01T04:59:45.664Z,12.02
2022-11-01T05:01:47.727Z,11.93
2022-11-01T05:03:50.130Z,12.93
2022-11-01T05:05:52.253Z,12.80
2022-11-01T05:08:08.611Z,11.98
2022-11-01T05:10:10.994Z,14.43
2022-11-01T05:16:19.052Z,17.95
2022-11-01T05:18:21.950Z,14.65
2022-11-01T05:20:24.501Z,14.45
2022-11-01T05:22:26.654Z,13.68
2022-11-01T05:24:28.738Z,15.05
2022-11-01T05:26:33.861Z,16.73
2022-11-01T05:28:35.848Z,14.50
2022-11-01T05:30:38.479Z,11.90
2022-11-01T05:32:40.686Z,13.07
2022-11-01T05:34:46.033Z,14.57
2022-11-01T05:36:51.159Z,16.27
2022-11-01T05:39:00.097Z,17.23
2022-11-01T05:41:03.861Z,15.77
2022-11-01T05:43:05.963Z,15.48
2022-11-01T05:45:10.175Z,15.45
2022-11-01T05:47:17.205Z,13.13
2022-11-01T05:49:20.171Z,12.82
2022-11-01T05:51:22.957Z,12.15
2022-11-01T05:53:25.021Z,13.20
2022-11-01T05:55:26.842Z,13.15
2022-11-01T05:57:33.117Z,12.35
2022-11-01T05:59:35.218Z,13.30
2022-11-01T06:01:37.105Z,10.32
2022-11-01T06:03:39.159Z,12.00
2022-11-01T06:06:19.449Z,12.52
2022-11-01T06:08:21.475Z,15.75
2022-11-01T06:10:23.608Z,16.67
2022-11-01T06:12:25.774Z,16.83
2022-11-01T06:14:27.615Z,17.13
2022-11-01T06:16:29.634Z,24.27
2022-11-01T06:18:31.826Z,24.17
2022-11-01T06:20:34.844Z,25.27
2022-11-01T06:22:36.965Z,19.45
2022-11-01T06:24:38.884Z,16.30
2022-11-01T06:26:40.647Z,15.43
2022-11-01T06:28:42.822Z,15.80
2022-11-01T06:30:44.608Z,18.17
2022-11-01T06:32:46.766Z,18.85
2022-11-01T06:34:48.618Z,20.35
2022-11-01T06:36:50.608Z,21.80
2022-11-01T06:38:52.713Z,20.45
2022-11-01T06:40:54.581Z,21.33
2022-11-01T06:43:05.660Z,35.03
2022-11-01T06:45:07.953Z,36.30
2022-11-01T06:47:12.709Z,29.20
2022-11-01T06:49:17.996Z,22.73
2022-11-01T06:51:21.271Z,19.15
2022-11-01T06:53:26.084Z,15.63
2022-11-01T06:55:29.488Z,10.90
2022-11-01T06:57:31.394Z,10.45
2022-11-01T06:59:33.323Z,9.32
2022-11-01T07:01:35.225Z,10.55
2022-11-01T07:03:37.197Z,10.65
2022-11-01T07:05:40.446Z,8.60
2022-11-01T07:07:42.538Z,9.43
2022-11-01T07:09:47.685Z,9.55
2022-11-01T07:11:49.406Z,8.98
2022-11-01T07:13:51.281Z,9.30
2022-11-01T07:15:53.132Z,9.30
2022-11-01T07:17:58.832Z,9.23
2022-11-01T07:20:00.765Z,8.90
2022-11-01T07:22:02.958Z,9.13
2022-11-01T07:24:05.442Z,9.00
2022-11-01T07:26:07.302Z,9.05
2022-11-01T07:28:09.736Z,9.57
2022-11-01T07:30:12.263Z,9.27
2022-11-01T07:32:14.135Z,9.13
2022-11-01T07:34:16.079Z,9.10
2022-11-01T07:36:18.283Z,8.80
2022-11-01T07:38:20.389Z,9.35
2022-11-01T07:40:27.654Z,9.57
2022-11-01T07:42:29.917Z,10.40
2022-11-01T07:44:31.822Z,10.40
2022-11-01T07:46:33.691Z,10.80
2022-11-01T07:48:37.061Z,10.23
2022-11-01T07:50:40.746Z,9.77
2022-11-01T07:52:43.153Z,10.35
2022-11-01T07:54:45.022Z,10.50
2022-11-01T07:56:48.024Z,9.75
2022-11-01T07:58:49.888Z,10.25
2022-11-01T08:00:51.726Z,10.45
2022-11-01T08:03:01.217Z,9.70
2022-11-01T08:05:03.597Z,10.25
2022-11-01T08:07:05.460Z,9.93
2022-11-01T08:09:07.408Z,10.18
2022-11-01T08:11:09.289Z,9.75
2022-11-01T08:13:25.026Z,9.90
2022-11-01T08:15:26.850Z,9.18
2022-11-01T08:17:33.490Z,9.82
2022-11-01T08:19:35.202Z,9.02
2022-11-01T08:21:37.172Z,8.77
2022-11-01T08:23:39.154Z,9.73
2022-11-01T08:25:41.187Z,9.95
2022-11-01T08:27:45.436Z,8.82
2022-11-01T08:29:47.457Z,8.23
2022-11-01T08:31:49.509Z,8.82
2022-11-01T08:33:51.538Z,8.38
2022-11-01T08:35:53.968Z,7.72
2022-11-01T08:37:56.384Z,8.85
2022-11-01T08:39:58.351Z,8.85
2022-11-01T08:42:00.845Z,9.23
2022-11-01T08:44:02.917Z,8.60
2022-11-01T08:46:05.019Z,8.73
2022-11-01T08:48:07.402Z,8.68
2022-11-01T08:50:11.942Z,8.23
2022-11-01T08:52:14.108Z,9.10
2022-11-01T08:54:16.128Z,8.70
2022-11-01T08:56:20.745Z,9.27
2022-11-01T08:58:22.862Z,8.82
2022-11-01T09:00:24.823Z,8.13
2022-11-01T09:02:27.192Z,7.28
2022-11-01T09:04:29.821Z,8.32
2022-11-01T09:06:36.197Z,9.00
2022-11-01T09:08:38.803Z,9.23
2022-11-01T09:10:40.747Z,9.77
2022-11-01T09:12:43.686Z,10.10
2022-11-01T09:14:45.818Z,9.65
2022-11-01T09:16:47.903Z,9.60
2022-11-01T09:18:50.203Z,15.98
2022-11-01T09:20:55.975Z,13.68
2022-11-01T09:22:57.902Z,13.35
2022-11-01T09:25:00.093Z,12.10
2022-11-01T09:27:02.586Z,13.15
2022-11-01T09:29:04.958Z,13.88
2022-11-01T09:31:22.490Z,11.95
2022-11-01T09:33:25.253Z,12.65
2022-11-01T09:35:27.421Z,12.90
2022-11-01T09:37:29.367Z,13.63
2022-11-01T09:39:31.321Z,12.25
2022-11-01T09:41:39.203Z,11.75
2022-11-01T09:43:44.445Z,11.73
2022-11-01T09:45:48.773Z,12.32
2022-11-01T09:47:54.838Z,12.20
2022-11-01T09:50:38.677Z,12.32
2022-11-01T09:52:41.323Z,14.50
2022-11-01T09:54:43.722Z,14.95
2022-11-01T09:57:07.520Z,16.77
2022-11-01T09:59:38.838Z,16.30
2022-11-01T10:01:55.798Z,18.75
2022-11-01T10:04:04.122Z,13.93
2022-11-01T10:06:44.305Z,12.20
2022-11-01T10:08:46.452Z,11.25
2022-11-01T10:11:04.279Z,10.82
2022-11-01T10:13:24.528Z,14.18
2022-11-01T10:15:41.961Z,15.70
2022-11-01T10:17:52.458Z,18.38
2022-11-01T10:22:32.566Z,15.43
2022-11-01T10:24:49.308Z,16.80
2022-11-01T10:26:56.182Z,18.23
2022-11-01T10:29:16.673Z,18.30
2022-11-01T10:31:23.177Z,19.25
2022-11-01T10:33:30.760Z,19.73
2022-11-01T10:35:38.487Z,16.73
2022-11-01T10:37:57.460Z,14.02
2022-11-01T10:40:18.800Z,13.05
2022-11-01T10:42:20.863Z,15.43
2022-11-01T10:44:38.574Z,16.88
2022-11-01T10:46:45.671Z,18.92
2022-11-01T10:49:01.628Z,21.50
2022-11-01T10:51:06.554Z,19.98
2022-11-01T10:53:12.847Z,20.55
2022-11-01T10:58:57.172Z,19.27
2022-11-01T11:01:06.257Z,16.00
2022-11-01T11:03:15.700Z,15.25
2022-11-01T11:05:19.199Z,15.07
2022-11-01T11:07:24.215Z,17.38
2022-11-01T11:09:34.748Z,18.70
2022-11-01T11:11:44.497Z,25.05
2022-11-01T11:13:53.967Z,24.77
2022-11-01T11:16:02.519Z,20.98
2022-11-01T11:18:17.544Z,20.83
2022-11-01T11:20:30.563Z,18.75
2022-11-01T11:22:37.625Z,20.33
2022-11-01T11:24:44.471Z,23.77
2022-11-01T11:26:53.194Z,25.23
2022-11-01T11:28:57.484Z,30.92
2022-11-01T11:31:18.763Z,21.42
2022-11-01T11:33:22.137Z,25.60
2022-11-01T11:35:27.767Z,23.58
2022-11-01T11:37:33.581Z,19.63
2022-11-01T11:39:37.925Z,17.65
2022-11-01T11:41:42.986Z,13.27
2022-11-01T11:43:45.457Z,13.10
2022-11-01T11:46:03.358Z,12.00
2022-11-01T11:48:20.634Z,10.30
2022-11-01T11:50:32.478Z,11.95
2022-11-01T11:52:38.519Z,13.23
2022-11-01T11:54:42.257Z,12.15
2022-11-01T11:56:46.125Z,11.45
2022-11-01T11:58:48.831Z,13.23
2022-11-01T12:00:55.128Z,13.63
2022-11-01T12:03:00.627Z,10.90
2022-11-01T12:05:09.047Z,11.18
2022-11-01T12:07:28.249Z,11.13
2022-11-01T12:09:48.277Z,11.35
2022-11-01T12:11:50.656Z,11.82
2022-11-01T12:14:06.456Z,15.68
2022-11-01T12:16:17.827Z,14.52
2022-11-01T12:18:20.110Z,16.55
2022-11-01T12:20:26.960Z,13.55
2022-11-01T12:22:33.204Z,12.45
2022-11-01T12:24:48.483Z,11.32
2022-11-01T12:26:54.185Z,9.57
2022-11-01T12:29:03.369Z,9.40
2022-11-01T12:31:19.620Z,8.15
2022-11-01T12:33:28.206Z,7.63
2022-11-01T12:35:35.236Z,8.30
2022-11-01T12:37:52.021Z,9.88
2022-11-01T12:40:26.525Z,10.80
2022-11-01T12:42:32.978Z,9.23
2022-11-01T12:44:48.561Z,7.68
2022-11-01T12:47:00.382Z,8.07
2022-11-01T12:49:34.662Z,8.70
2022-11-01T12:51:42.606Z,7.72
2022-11-01T12:54:02.251Z,7.63
2022-11-01T12:56:04.518Z,7.82
2022-11-01T12:58:13.356Z,7.20
2022-11-01T13:00:20.362Z,7.25
2022-11-01T13:02:48.169Z,7.47
2022-11-01T13:05:00.384Z,8.50
2022-11-01T13:07:21.541Z,8.82
2022-11-01T13:09:38.553Z,9.07
2022-11-01T13:12:05.308Z,7.40
2022-11-01T13:14:19.275Z,12.95
2022-11-01T13:16:34.604Z,13.02
2022-11-01T13:18:58.386Z,11.68
2022-11-01T13:21:03.358Z,13.48
2022-11-01T13:23:24.297Z,15.75
2022-11-01T13:25:36.364Z,16.77
2022-11-01T13:27:48.910Z,13.38
2022-11-01T13:30:03.545Z,11.32
2022-11-01T13:32:18.405Z,13.07
2022-11-01T13:34:48.089Z,12.48
2022-11-01T13:37:19.071Z,11.00
2022-11-01T13:39:38.216Z,10.88
2022-11-01T13:41:48.926Z,9.73
2022-11-01T13:43:58.239Z,10.32
2022-11-01T13:46:24.358Z,10.48
2022-11-01T13:48:54.261Z,9.50
2022-11-01T13:51:16.308Z,8.75
2022-11-01T13:53:46.079Z,9.23
2022-11-01T13:55:58.139Z,8.35
2022-11-01T13:58:01.065Z,7.15
2022-11-01T14:00:09.768Z,7.82
2022-11-01T14:02:55.347Z,7.68
2022-11-01T14:05:03.180Z,7.50
2022-11-01T14:07:15.208Z,9.50
2022-11-01T14:09:26.787Z,9.82
2022-11-01T14:12:07.835Z,10.50
2022-11-01T14:14:31.797Z,9.23
2022-11-01T14:16:33.838Z,9.10
2022-11-01T14:19:16.053Z,8.25
2022-11-01T14:21:27.566Z,9.30
2022-11-01T14:23:29.893Z,9.73
2022-11-01T14:25:32.958Z,10.63
2022-11-01T14:27:36.974Z,9.88
2022-11-01T14:29:39.240Z,9.10
2022-11-01T14:31:45.923Z,8.77
2022-11-01T14:33:48.670Z,8.25
2022-11-01T14:35:57.257Z,9.05
2022-11-01T14:38:14.763Z,8.90
2022-11-01T14:40:26.079Z,8.88
2022-11-01T14:42:41.849Z,8.57
2022-11-01T14:44:50.529Z,9.20
2022-11-01T14:46:56.578Z,9.02
2022-11-01T14:49:28.004Z,9.38
2022-11-01T14:51:32.181Z,9.50
2022-11-01T14:53:38.261Z,9.32
2022-11-01T14:55:40.345Z,8.85
2022-11-01T14:57:43.241Z,9.45
2022-11-01T14:59:45.206Z,8.82
2022-11-01T15:01:50.404Z,9.07
2022-11-01T15:04:01.157Z,8.77
2022-11-01T15:06:04.943Z,9.18
2022-11-01T15:08:31.047Z,9.25
2022-11-01T15:10:41.757Z,9.75
2022-11-01T15:12:54.128Z,10.52
2022-11-01T15:14:58.413Z,12.10
2022-11-01T15:17:00.957Z,12.98
2022-11-01T15:19:15.180Z,11.13
2022-11-01T15:22:07.087Z,13.70
2022-11-01T15:24:20.468Z,17.98
2022-11-01T15:26:27.224Z,25.75
2022-11-01T15:28:51.552Z,28.00
2022-11-01T15:31:00.043Z,44.92
2022-11-01T15:33:30.997Z,54.83
2022-11-01T15:35:33.556Z,105.25
2022-11-01T15:37:37.053Z,144.38
2022-11-01T15:39:39.389Z,149.45
2022-11-01T15:41:42.044Z,155.80
2022-11-01T15:43:51.482Z,185.35
2022-11-01T15:46:01.729Z,175.65
2022-11-01T15:48:10.135Z,188.85
2022-11-01T15:50:13.127Z,180.40
2022-11-01T15:52:19.651Z,183.07
2022-11-01T15:54:31.856Z,183.13
2022-11-01T15:56:54.547Z,180.82
2022-11-01T15:59:00.557Z,175.18
2022-11-01T16:01:20.607Z,176.45
2022-11-01T16:03:29.322Z,182.52
2022-11-01T16:06:01.354Z,183.45
2022-11-01T16:08:07.515Z,174.93
2022-11-01T16:10:30.063Z,177.27
2022-11-01T16:12:36.581Z,180.85
2022-11-01T16:14:38.558Z,180.02
2022-11-01T16:17:06.642Z,172.88
2022-11-01T16:19:27.787Z,158.68
2022-11-01T16:21:30.854Z,158.43
2022-11-01T16:23:32.955Z,144.93
2022-11-01T16:25:39.583Z,138.25
2022-11-01T16:28:02.382Z,139.30
2022-11-01T16:30:10.372Z,137.40
2022-11-01T16:32:27.346Z,168.60
2022-11-01T16:34:29.318Z,153.27
2022-11-01T16:36:31.284Z,150.55
2022-11-01T16:38:33.388Z,146.23
2022-11-01T16:40:35.542Z,122.13
2022-11-01T16:42:37.720Z,111.97
2022-11-01T16:44:40.594Z,128.98
2022-11-01T16:46:42.727Z,127.80
2022-11-01T16:48:56.419Z,98.53
2022-11-01T16:51:00.338Z,72.15
2022-11-01T16:53:02.510Z,45.15
2022-11-01T16:55:04.894Z,39.92
2022-11-01T16:57:18.552Z,36.30
2022-11-01T16:59:27.681Z,36.30
2022-11-01T17:01:35.059Z,36.40
2022-11-01T17:03:38.053Z,34.05
2022-11-01T17:09:16.553Z,57.72
2022-11-01T17:11:18.790Z,82.00
2022-11-01T17:13:20.708Z,90.72
2022-11-01T17:15:23.193Z,93.35
2022-11-01T17:17:27.591Z,97.25
2022-11-01T17:19:33.226Z,99.53
2022-11-01T17:21:39.562Z,102.22
2022-11-01T17:23:41.756Z,96.82
2022-11-01T17:25:47.519Z,88.97
2022-11-01T17:27:51.887Z,88.90
2022-11-01T17:29:53.997Z,83.90
2022-11-01T17:31:56.134Z,84.20
2022-11-01T17:34:00.825Z,102.65
2022-11-01T17:36:03.145Z,98.90
2022-11-01T17:38:09.585Z,82.18
2022-11-01T17:40:25.365Z,70.57
2022-11-01T17:42:27.774Z,73.32
2022-11-01T17:44:32.593Z,61.67
2022-11-01T17:46:34.705Z,66.05
2022-11-01T17:48:39.399Z,69.15
2022-11-01T17:50:42.445Z,69.65
2022-11-01T17:52:44.584Z,71.25
2022-11-01T17:54:46.896Z,73.00
2022-11-01T17:56:51.437Z,83.28
2022-11-01T17:58:53.977Z,81.18
2022-11-01T18:00:56.100Z,79.70
2022-11-01T18:02:58.868Z,75.57
2022-11-01T18:05:00.786Z,82.20
2022-11-01T18:07:06.528Z,77.10
2022-11-01T18:09:23.645Z,74.35
2022-11-01T18:11:40.009Z,72.82
2022-11-01T18:14:11.404Z,59.92
2022-11-01T18:16:29.657Z,53.55
2022-11-01T18:18:32.021Z,54.25
2022-11-01T18:20:50.092Z,51.08
2022-11-01T18:23:00.782Z,51.88
2022-11-01T18:25:25.423Z,48.15
2022-11-01T18:27:35.882Z,45.45
2022-11-01T18:29:41.564Z,44.80
2022-11-01T18:31:48.885Z,46.30
2022-11-01T18:34:20.703Z,44.78
2022-11-01T18:36:33.591Z,47.67
2022-11-01T18:38:56.382Z,47.50
2022-11-01T18:41:00.657Z,48.15
2022-11-01T18:43:05.177Z,47.70
2022-11-01T18:45:26.851Z,49.33
2022-11-01T18:47:35.011Z,50.25
2022-11-01T18:49:39.580Z,56.03
2022-11-01T18:51:41.600Z,56.15
2022-11-01T18:53:43.842Z,50.65
2022-11-01T18:56:14.182Z,48.33
2022-11-01T18:58:31.272Z,48.83
2022-11-01T19:00:33.621Z,45.88
2022-11-01T19:02:36.195Z,50.65
2022-11-01T19:04:41.250Z,62.25
2022-11-01T19:06:44.760Z,79.43
2022-11-01T19:08:58.636Z,81.05
2022-11-01T19:11:01.615Z,72.97
2022-11-01T19:13:12.899Z,81.15
2022-11-01T19:15:28.415Z,84.95
2022-11-01T19:17:37.529Z,87.90
2022-11-01T19:19:42.311Z,94.63
2022-11-01T19:21:44.324Z,88.45
2022-11-01T19:24:28.163Z,87.40
2022-11-01T19:26:39.262Z,81.65
2022-11-01T19:28:41.252Z,84.38
2022-11-01T19:30:49.207Z,80.53
2022-11-01T19:32:54.187Z,76.13
2022-11-01T19:34:56.284Z,72.00
2022-11-01T19:37:00.497Z,66.88
2022-11-01T19:39:28.034Z,67.25
2022-11-01T19:41:33.693Z,63.05
2022-11-01T19:43:35.858Z,62.05
2022-11-01T19:45:49.663Z,57.63
2022-11-01T19:47:51.668Z,59.70
2022-11-01T19:49:53.760Z,58.95
2022-11-01T19:52:09.855Z,59.80
2022-11-01T19:54:12.666Z,54.15
2022-11-01T19:56:21.629Z,53.22
2022-11-01T19:58:30.153Z,53.38
2022-11-01T20:00:36.381Z,51.42
2022-11-01T20:02:39.134Z,53.75
2022-11-01T20:04:41.870Z,51.25
2022-11-01T20:06:50.729Z,50.83
2022-11-01T20:08:55.726Z,51.08
2022-11-01T20:10:57.665Z,53.42
2022-11-01T20:12:59.675Z,53.80
2022-11-01T20:15:05.264Z,52.90
2022-11-01T20:17:07.386Z,54.47
2022-11-01T20:19:13.171Z,48.35
2022-11-01T20:21:18.925Z,47.47
2022-11-01T20:23:26.200Z,45.70
2022-11-01T20:25:31.023Z,43.58
2022-11-01T20:27:33.328Z,41.10
2022-11-01T20:29:35.515Z,40.17
2022-11-01T20:31:39.959Z,38.25
2022-11-01T20:33:42.405Z,40.25
2022-11-01T20:35:44.691Z,36.70
2022-11-01T20:38:24.385Z,36.65
2022-11-01T20:40:26.810Z,39.42
2022-11-01T20:42:29.286Z,51.03
2022-11-01T20:44:34.626Z,104.88
2022-11-01T20:47:43.899Z,141.27
2022-11-01T20:49:48.739Z,105.00
2022-11-01T20:51:50.828Z,90.65
2022-11-01T20:53:55.820Z,85.72
2022-11-01T20:55:57.804Z,83.72
2022-11-01T20:58:00.132Z,93.13
2022-11-01T21:00:04.354Z,87.32
2022-11-01T21:02:10.655Z,85.10
2022-11-01T21:04:13.066Z,86.68
2022-11-01T21:06:19.236Z,84.93
2022-11-01T21:08:22.813Z,89.00
2022-11-01T21:10:34.143Z,96.53
2022-11-01T21:12:36.196Z,107.57
2022-11-01T21:14:41.188Z,106.85
2022-11-01T21:16:43.593Z,105.35
2022-11-01T21:18:46.175Z,89.80
2022-11-01T21:20:49.461Z,84.25
2022-11-01T21:22:59.196Z,84.95
2022-11-01T21:25:01.184Z,107.22
2022-11-01T21:27:06.196Z,88.50
2022-11-01T21:29:34.249Z,77.75
2022-11-01T21:31:39.648Z,69.65
2022-11-01T21:33:52.533Z,66.57
2022-11-01T21:35:57.183Z,62.70
2022-11-01T21:37:59.905Z,60.00
2022-11-01T21:40:06.619Z,55.30
2022-11-01T21:42:33.335Z,50.97
2022-11-01T21:44:43.221Z,45.35
2022-11-01T21:46:54.170Z,36.03
2022-11-01T21:48:59.742Z,33.22
2022-11-01T21:54:34.020Z,35.58
2022-11-01T21:56:38.876Z,37.53
2022-11-01T21:58:40.935Z,50.40
2022-11-01T22:00:43.092Z,53.50
2022-11-01T22:02:51.134Z,67.80
2022-11-01T22:04:55.499Z,99.18
2022-11-01T22:07:01.812Z,96.00
2022-11-01T22:09:04.570Z,88.38
2022-11-01T22:11:06.491Z,78.32
2022-11-01T22:13:08.852Z,79.57
2022-11-01T22:15:11.378Z,104.95
2022-11-01T22:17:13.427Z,107.13
2022-11-01T22:19:15.453Z,90.63
2022-11-01T22:21:17.759Z,66.03
2022-11-01T22:23:20.165Z,58.80
2022-11-01T22:25:22.273Z,50.80
2022-11-01T22:27:24.314Z,45.10
2022-11-01T22:29:26.377Z,45.03
2022-11-01T22:31:30.002Z,99.13
2022-11-01T22:33:34.207Z,104.72
2022-11-01T22:35:36.219Z,76.53
2022-11-01T22:37:38.261Z,70.15
2022-11-01T22:39:41.331Z,57.90
2022-11-01T22:41:43.956Z,49.20
2022-11-01T22:43:47.805Z,44.25
2022-11-01T22:45:53.114Z,41.25
2022-11-01T22:47:58.164Z,36.00
2022-11-01T22:50:03.278Z,33.70
2022-11-01T22:52:29.646Z,32.40
2022-11-01T22:54:39.009Z,32.35
2022-11-01T22:56:40.944Z,33.50
2022-11-01T22:58:42.898Z,29.60
2022-11-01T23:04:38.016Z,28.77
2022-11-01T23:06:42.847Z,28.35
2022-11-01T23:08:44.784Z,26.55
2022-11-01T23:10:50.241Z,27.83
2022-11-01T23:13:27.266Z,28.50
2022-11-01T23:15:33.230Z,28.23
2022-11-01T23:17:38.735Z,30.50
2022-11-01T23:19:40.942Z,29.15
2022-11-01T23:21:45.936Z,28.92
2022-11-01T23:23:48.818Z,30.48
2022-11-01T23:25:51.808Z,33.97
2022-11-01T23:27:54.583Z,32.15
2022-11-01T23:30:01.217Z,31.90
2022-11-01T23:32:03.645Z,34.47
2022-11-01T23:34:07.014Z,33.17
2022-11-01T23:36:27.696Z,31.13
2022-11-01T23:38:41.164Z,29.02
2022-11-01T23:40:43.239Z,29.40
2022-11-01T23:42:46.270Z,32.25
2022-11-01T23:44:52.410Z,30.88
2022-11-01T23:47:00.986Z,33.63
2022-11-01T23:49:13.326Z,33.25
2022-11-01T23:51:21.481Z,31.40
2022-11-01T23:53:32.263Z,29.75
2022-11-01T23:55:38.742Z,32.03
2022-11-01T23:57:44.136Z,31.95
2022-11-01T23:59:54.184Z,33.53
